sensor_id;sensor_type;location;lat;lon;timestamp;temperature;humidity
33803;DHT22;20110;53.120;5.786;2023-02-03T00:01:33;7.20;99.90
33803;DHT22;20110;53.120;5.786;2023-02-03T00:03:59;7.00;99.90
33803;DHT22;20110;53.120;5.786;2023-02-03T00:06:25;7.00;99.90
33803;DHT22;20110;53.120;5.786;2023-02-03T00:08:56;7.10;99.90
33803;DHT22;20110;53.120;5.786;2023-02-03T00:11:24;7.10;99.90
33803;DHT22;20110;53.120;5.786;2023-02-03T00:13:50;7.00;99.90
33803;DHT22;20110;53.120;5.786;2023-02-03T00:16:16;7.10;99.90
33803;DHT22;20110;53.120;5.786;2023-02-03T00:18:42;7.20;99.90
33803;DHT22;20110;53.120;5.786;2023-02-03T00:21:08;7.20;99.90
33803;DHT22;20110;53.120;5.786;2023-02-03T00:23:33;7.30;99.90
33803;DHT22;20110;53.120;5.786;2023-02-03T00:26:11;7.30;99.90
33803;DHT22;20110;53.120;5.786;2023-02-03T00:28:39;7.40;99.90
33803;DHT22;20110;53.120;5.786;2023-02-03T00:31:05;7.40;99.90
33803;DHT22;20110;53.120;5.786;2023-02-03T00:33:38;7.40;99.90
33803;DHT22;20110;53.120;5.786;2023-02-03T00:36:05;7.10;67.90
33803;DHT22;20110;53.120;5.786;2023-02-03T00:38:31;7.10;99.90
33803;DHT22;20110;53.120;5.786;2023-02-03T00:40:57;7.00;99.90
33803;DHT22;20110;53.120;5.786;2023-02-03T00:43:23;7.10;99.90
33803;DHT22;20110;53.120;5.786;2023-02-03T00:45:48;7.20;99.90
33803;DHT22;20110;53.120;5.786;2023-02-03T00:48:14;7.00;99.90
33803;DHT22;20110;53.120;5.786;2023-02-03T00:50:40;6.90;99.90
33803;DHT22;20110;53.120;5.786;2023-02-03T00:53:06;7.10;99.90
33803;DHT22;20110;53.120;5.786;2023-02-03T00:55:31;7.10;99.90
33803;DHT22;20110;53.120;5.786;2023-02-03T00:57:57;7.10;99.90
33803;DHT22;20110;53.120;5.786;2023-02-03T01:00:23;7.10;99.90
33803;DHT22;20110;53.120;5.786;2023-02-03T01:02:49;7.10;99.90
33803;DHT22;20110;53.120;5.786;2023-02-03T01:05:15;7.10;99.90
33803;DHT22;20110;53.120;5.786;2023-02-03T01:07:40;7.00;99.90
33803;DHT22;20110;53.120;5.786;2023-02-03T01:10:07;7.00;99.90
33803;DHT22;20110;53.120;5.786;2023-02-03T01:12:33;6.90;99.90
33803;DHT22;20110;53.120;5.786;2023-02-03T01:14:59;7.00;99.90
33803;DHT22;20110;53.120;5.786;2023-02-03T01:17:24;7.00;99.90
33803;DHT22;20110;53.120;5.786;2023-02-03T01:19:51;7.00;99.90
33803;DHT22;20110;53.120;5.786;2023-02-03T01:22:17;7.00;99.90
33803;DHT22;20110;53.120;5.786;2023-02-03T01:24:43;7.00;99.90
33803;DHT22;20110;53.120;5.786;2023-02-03T01:27:09;7.10;99.90
33803;DHT22;20110;53.120;5.786;2023-02-03T01:29:35;7.10;99.90
33803;DHT22;20110;53.120;5.786;2023-02-03T01:32:01;7.10;99.90
33803;DHT22;20110;53.120;5.786;2023-02-03T01:34:27;7.20;99.90
33803;DHT22;20110;53.120;5.786;2023-02-03T01:36:53;7.10;99.90
33803;DHT22;20110;53.120;5.786;2023-02-03T01:39:19;7.20;99.90
33803;DHT22;20110;53.120;5.786;2023-02-03T01:41:45;7.30;99.90
33803;DHT22;20110;53.120;5.786;2023-02-03T01:52:31;7.00;93.30
33803;DHT22;20110;53.120;5.786;2023-02-03T01:55:00;7.10;99.90
33803;DHT22;20110;53.120;5.786;2023-02-03T01:57:37;7.10;99.90
33803;DHT22;20110;53.120;5.786;2023-02-03T02:00:08;7.10;99.90
33803;DHT22;20110;53.120;5.786;2023-02-03T02:02:35;7.10;99.90
33803;DHT22;20110;53.120;5.786;2023-02-03T02:07:52;7.10;99.90
33803;DHT22;20110;53.120;5.786;2023-02-03T02:10:21;7.10;99.90
33803;DHT22;20110;53.120;5.786;2023-02-03T02:12:47;7.10;99.90
33803;DHT22;20110;53.120;5.786;2023-02-03T02:15:13;6.90;54.70
33803;DHT22;20110;53.120;5.786;2023-02-03T02:21:05;6.90;99.90
33803;DHT22;20110;53.120;5.786;2023-02-03T02:35:17;7.10;99.90
33803;DHT22;20110;53.120;5.786;2023-02-03T02:38:08;7.00;99.90
33803;DHT22;20110;53.120;5.786;2023-02-03T02:46:18;7.20;99.90
33803;DHT22;20110;53.120;5.786;2023-02-03T02:51:52;7.20;99.90
33803;DHT22;20110;53.120;5.786;2023-02-03T02:54:22;7.20;99.90
33803;DHT22;20110;53.120;5.786;2023-02-03T02:56:55;7.00;99.90
33803;DHT22;20110;53.120;5.786;2023-02-03T02:59:24;6.90;99.90
33803;DHT22;20110;53.120;5.786;2023-02-03T03:01:50;6.80;99.90
33803;DHT22;20110;53.120;5.786;2023-02-03T03:04:20;6.80;99.90
33803;DHT22;20110;53.120;5.786;2023-02-03T03:07:02;7.00;99.90
33803;DHT22;20110;53.120;5.786;2023-02-03T03:09:39;7.10;99.90
33803;DHT22;20110;53.120;5.786;2023-02-03T03:12:46;7.10;99.90
33803;DHT22;20110;53.120;5.786;2023-02-03T03:15:23;7.10;99.90
33803;DHT22;20110;53.120;5.786;2023-02-03T03:18:09;7.10;99.90
33803;DHT22;20110;53.120;5.786;2023-02-03T03:20:41;7.20;99.90
33803;DHT22;20110;53.120;5.786;2023-02-03T03:23:26;7.20;99.90
33803;DHT22;20110;53.120;5.786;2023-02-03T03:26:27;7.20;99.90
33803;DHT22;20110;53.120;5.786;2023-02-03T03:29:10;7.10;99.90
33803;DHT22;20110;53.120;5.786;2023-02-03T03:31:40;7.00;99.90
33803;DHT22;20110;53.120;5.786;2023-02-03T03:34:11;6.90;99.90
33803;DHT22;20110;53.120;5.786;2023-02-03T03:37:00;6.90;99.90
33803;DHT22;20110;53.120;5.786;2023-02-03T03:39:34;6.80;99.90
33803;DHT22;20110;53.120;5.786;2023-02-03T03:48:16;7.00;99.90
33803;DHT22;20110;53.120;5.786;2023-02-03T03:50:49;6.90;99.90
33803;DHT22;20110;53.120;5.786;2023-02-03T03:53:22;6.90;99.90
33803;DHT22;20110;53.120;5.786;2023-02-03T03:55:50;6.90;99.90
33803;DHT22;20110;53.120;5.786;2023-02-03T03:58:25;6.80;99.90
33803;DHT22;20110;53.120;5.786;2023-02-03T04:00:59;6.90;99.90
33803;DHT22;20110;53.120;5.786;2023-02-03T04:03:40;7.00;99.90
33803;DHT22;20110;53.120;5.786;2023-02-03T04:06:11;7.10;99.90
33803;DHT22;20110;53.120;5.786;2023-02-03T04:08:37;7.10;99.90
33803;DHT22;20110;53.120;5.786;2023-02-03T04:11:04;7.10;99.90
33803;DHT22;20110;53.120;5.786;2023-02-03T04:13:31;7.00;99.90
33803;DHT22;20110;53.120;5.786;2023-02-03T04:15:57;7.10;99.90
33803;DHT22;20110;53.120;5.786;2023-02-03T04:18:23;7.10;99.90
33803;DHT22;20110;53.120;5.786;2023-02-03T04:20:49;7.10;99.90
33803;DHT22;20110;53.120;5.786;2023-02-03T04:23:15;7.10;99.90
33803;DHT22;20110;53.120;5.786;2023-02-03T04:25:41;7.10;99.90
33803;DHT22;20110;53.120;5.786;2023-02-03T04:28:07;7.10;99.90
33803;DHT22;20110;53.120;5.786;2023-02-03T04:30:33;6.90;99.90
33803;DHT22;20110;53.120;5.786;2023-02-03T04:32:59;6.80;99.90
33803;DHT22;20110;53.120;5.786;2023-02-03T04:35:26;6.70;99.90
33803;DHT22;20110;53.120;5.786;2023-02-03T04:37:52;6.80;99.90
33803;DHT22;20110;53.120;5.786;2023-02-03T04:40:18;6.80;99.90
33803;DHT22;20110;53.120;5.786;2023-02-03T04:42:44;6.70;99.90
33803;DHT22;20110;53.120;5.786;2023-02-03T04:45:10;6.70;99.90
33803;DHT22;20110;53.120;5.786;2023-02-03T04:47:37;6.80;99.90
33803;DHT22;20110;53.120;5.786;2023-02-03T04:50:03;6.70;99.90
33803;DHT22;20110;53.120;5.786;2023-02-03T04:52:30;6.70;99.90
33803;DHT22;20110;53.120;5.786;2023-02-03T04:54:55;6.60;99.90
33803;DHT22;20110;53.120;5.786;2023-02-03T04:57:21;6.70;99.90
33803;DHT22;20110;53.120;5.786;2023-02-03T04:59:47;6.80;99.90
33803;DHT22;20110;53.120;5.786;2023-02-03T05:02:13;6.80;99.90
33803;DHT22;20110;53.120;5.786;2023-02-03T05:04:39;6.70;99.90
33803;DHT22;20110;53.120;5.786;2023-02-03T05:07:04;6.60;99.90
33803;DHT22;20110;53.120;5.786;2023-02-03T05:09:30;6.60;99.90
33803;DHT22;20110;53.120;5.786;2023-02-03T05:11:56;6.70;99.90
33803;DHT22;20110;53.120;5.786;2023-02-03T05:14:22;6.70;99.90
33803;DHT22;20110;53.120;5.786;2023-02-03T05:16:47;6.80;99.90
33803;DHT22;20110;53.120;5.786;2023-02-03T05:19:13;6.80;99.90
33803;DHT22;20110;53.120;5.786;2023-02-03T05:21:39;6.80;99.90
33803;DHT22;20110;53.120;5.786;2023-02-03T05:24:05;6.60;99.90
33803;DHT22;20110;53.120;5.786;2023-02-03T05:26:33;6.60;99.90
33803;DHT22;20110;53.120;5.786;2023-02-03T05:29:00;6.70;99.90
33803;DHT22;20110;53.120;5.786;2023-02-03T05:31:26;6.60;99.90
33803;DHT22;20110;53.120;5.786;2023-02-03T05:33:51;6.70;99.90
33803;DHT22;20110;53.120;5.786;2023-02-03T05:36:17;6.70;99.90
33803;DHT22;20110;53.120;5.786;2023-02-03T05:38:43;6.80;99.90
33803;DHT22;20110;53.120;5.786;2023-02-03T05:41:11;6.90;99.90
33803;DHT22;20110;53.120;5.786;2023-02-03T05:43:55;7.00;99.90
33803;DHT22;20110;53.120;5.786;2023-02-03T05:46:21;6.80;99.90
33803;DHT22;20110;53.120;5.786;2023-02-03T05:48:47;6.80;99.90
33803;DHT22;20110;53.120;5.786;2023-02-03T05:51:13;6.80;99.90
33803;DHT22;20110;53.120;5.786;2023-02-03T05:53:39;7.00;99.90
33803;DHT22;20110;53.120;5.786;2023-02-03T05:56:05;7.10;99.90
33803;DHT22;20110;53.120;5.786;2023-02-03T05:58:31;7.10;99.90
33803;DHT22;20110;53.120;5.786;2023-02-03T06:00:56;7.10;99.90
33803;DHT22;20110;53.120;5.786;2023-02-03T06:03:22;7.20;99.90
33803;DHT22;20110;53.120;5.786;2023-02-03T06:05:48;7.20;99.90
33803;DHT22;20110;53.120;5.786;2023-02-03T06:08:14;7.10;99.90
33803;DHT22;20110;53.120;5.786;2023-02-03T06:10:40;7.50;99.90
33803;DHT22;20110;53.120;5.786;2023-02-03T06:13:14;7.40;99.90
33803;DHT22;20110;53.120;5.786;2023-02-03T06:15:40;7.40;99.90
33803;DHT22;20110;53.120;5.786;2023-02-03T06:18:07;7.50;99.90
33803;DHT22;20110;53.120;5.786;2023-02-03T06:20:34;7.20;99.90
33803;DHT22;20110;53.120;5.786;2023-02-03T06:23:00;7.00;99.90
33803;DHT22;20110;53.120;5.786;2023-02-03T06:25:25;6.60;99.90
33803;DHT22;20110;53.120;5.786;2023-02-03T06:27:51;6.60;99.90
33803;DHT22;20110;53.120;5.786;2023-02-03T06:30:17;6.60;99.90
33803;DHT22;20110;53.120;5.786;2023-02-03T06:32:45;6.70;99.90
33803;DHT22;20110;53.120;5.786;2023-02-03T06:35:12;6.70;99.90
33803;DHT22;20110;53.120;5.786;2023-02-03T06:37:38;6.70;99.90
33803;DHT22;20110;53.120;5.786;2023-02-03T06:40:04;6.90;99.90
33803;DHT22;20110;53.120;5.786;2023-02-03T06:42:31;7.00;99.90
33803;DHT22;20110;53.120;5.786;2023-02-03T06:44:57;7.00;99.90
33803;DHT22;20110;53.120;5.786;2023-02-03T06:47:23;6.90;99.90
33803;DHT22;20110;53.120;5.786;2023-02-03T06:49:49;7.20;99.90
33803;DHT22;20110;53.120;5.786;2023-02-03T06:52:16;7.20;99.90
33803;DHT22;20110;53.120;5.786;2023-02-03T06:54:42;6.90;99.90
33803;DHT22;20110;53.120;5.786;2023-02-03T06:57:08;7.10;99.90
33803;DHT22;20110;53.120;5.786;2023-02-03T06:59:34;7.20;99.90
33803;DHT22;20110;53.120;5.786;2023-02-03T07:02:00;7.30;99.90
33803;DHT22;20110;53.120;5.786;2023-02-03T07:04:25;7.10;99.90
33803;DHT22;20110;53.120;5.786;2023-02-03T07:06:54;7.00;99.90
33803;DHT22;20110;53.120;5.786;2023-02-03T07:09:21;7.20;99.90
33803;DHT22;20110;53.120;5.786;2023-02-03T07:11:48;7.30;99.90
33803;DHT22;20110;53.120;5.786;2023-02-03T07:14:13;7.40;99.90
33803;DHT22;20110;53.120;5.786;2023-02-03T07:16:41;7.30;99.90
33803;DHT22;20110;53.120;5.786;2023-02-03T07:19:06;7.40;99.90
33803;DHT22;20110;53.120;5.786;2023-02-03T07:21:32;7.30;99.90
33803;DHT22;20110;53.120;5.786;2023-02-03T07:23:58;7.20;99.90
33803;DHT22;20110;53.120;5.786;2023-02-03T07:26:24;7.00;99.90
33803;DHT22;20110;53.120;5.786;2023-02-03T07:28:51;7.00;99.90
33803;DHT22;20110;53.120;5.786;2023-02-03T07:31:17;7.20;99.90
33803;DHT22;20110;53.120;5.786;2023-02-03T07:33:43;7.30;99.90
33803;DHT22;20110;53.120;5.786;2023-02-03T07:36:10;7.30;99.90
33803;DHT22;20110;53.120;5.786;2023-02-03T07:38:36;7.30;99.90
33803;DHT22;20110;53.120;5.786;2023-02-03T07:41:04;7.30;99.90
33803;DHT22;20110;53.120;5.786;2023-02-03T07:43:31;7.30;99.90
33803;DHT22;20110;53.120;5.786;2023-02-03T07:45:57;7.20;99.90
33803;DHT22;20110;53.120;5.786;2023-02-03T07:48:23;7.00;99.90
33803;DHT22;20110;53.120;5.786;2023-02-03T07:50:50;7.00;99.90
33803;DHT22;20110;53.120;5.786;2023-02-03T07:53:17;7.20;99.90
33803;DHT22;20110;53.120;5.786;2023-02-03T07:55:43;7.30;99.90
33803;DHT22;20110;53.120;5.786;2023-02-03T07:58:09;7.30;99.90
33803;DHT22;20110;53.120;5.786;2023-02-03T08:00:36;7.40;99.90
33803;DHT22;20110;53.120;5.786;2023-02-03T08:03:02;7.40;99.90
33803;DHT22;20110;53.120;5.786;2023-02-03T08:05:28;7.20;99.90
33803;DHT22;20110;53.120;5.786;2023-02-03T08:07:55;7.00;99.90
33803;DHT22;20110;53.120;5.786;2023-02-03T08:10:21;7.10;99.90
33803;DHT22;20110;53.120;5.786;2023-02-03T08:12:47;7.10;99.90
33803;DHT22;20110;53.120;5.786;2023-02-03T08:15:14;7.00;99.90
33803;DHT22;20110;53.120;5.786;2023-02-03T08:17:40;7.10;99.90
33803;DHT22;20110;53.120;5.786;2023-02-03T08:20:10;7.20;99.90
33803;DHT22;20110;53.120;5.786;2023-02-03T08:22:36;7.20;99.90
33803;DHT22;20110;53.120;5.786;2023-02-03T08:25:03;7.20;99.90
33803;DHT22;20110;53.120;5.786;2023-02-03T08:27:30;7.30;99.90
33803;DHT22;20110;53.120;5.786;2023-02-03T08:29:57;7.50;99.90
33803;DHT22;20110;53.120;5.786;2023-02-03T08:32:23;7.40;99.90
33803;DHT22;20110;53.120;5.786;2023-02-03T08:34:51;7.60;99.90
33803;DHT22;20110;53.120;5.786;2023-02-03T08:37:20;7.70;99.90
33803;DHT22;20110;53.120;5.786;2023-02-03T08:39:48;7.40;99.90
33803;DHT22;20110;53.120;5.786;2023-02-03T08:42:15;7.10;99.90
33803;DHT22;20110;53.120;5.786;2023-02-03T08:44:41;6.80;99.90
33803;DHT22;20110;53.120;5.786;2023-02-03T08:47:09;6.70;99.90
33803;DHT22;20110;53.120;5.786;2023-02-03T08:49:36;6.80;99.90
33803;DHT22;20110;53.120;5.786;2023-02-03T08:52:07;6.90;99.90
33803;DHT22;20110;53.120;5.786;2023-02-03T08:54:35;6.90;99.90
33803;DHT22;20110;53.120;5.786;2023-02-03T08:57:02;6.90;99.90
33803;DHT22;20110;53.120;5.786;2023-02-03T08:59:29;6.80;99.90
33803;DHT22;20110;53.120;5.786;2023-02-03T09:01:55;6.90;99.90
33803;DHT22;20110;53.120;5.786;2023-02-03T09:04:24;6.90;99.90
33803;DHT22;20110;53.120;5.786;2023-02-03T09:06:52;6.90;99.90
33803;DHT22;20110;53.120;5.786;2023-02-03T09:09:22;6.80;99.90
33803;DHT22;20110;53.120;5.786;2023-02-03T09:11:51;6.60;99.90
33803;DHT22;20110;53.120;5.786;2023-02-03T09:14:19;6.60;99.90
33803;DHT22;20110;53.120;5.786;2023-02-03T09:16:45;6.50;99.90
33803;DHT22;20110;53.120;5.786;2023-02-03T09:19:11;6.60;99.90
33803;DHT22;20110;53.120;5.786;2023-02-03T09:21:38;6.50;99.90
33803;DHT22;20110;53.120;5.786;2023-02-03T09:24:04;6.50;99.90
33803;DHT22;20110;53.120;5.786;2023-02-03T09:26:29;6.50;99.90
33803;DHT22;20110;53.120;5.786;2023-02-03T09:28:55;6.60;99.90
33803;DHT22;20110;53.120;5.786;2023-02-03T09:31:21;6.50;99.90
33803;DHT22;20110;53.120;5.786;2023-02-03T09:33:47;6.60;99.90
33803;DHT22;20110;53.120;5.786;2023-02-03T09:36:13;6.70;99.90
33803;DHT22;20110;53.120;5.786;2023-02-03T09:38:39;6.80;99.90
33803;DHT22;20110;53.120;5.786;2023-02-03T09:44:19;7.10;99.90
33803;DHT22;20110;53.120;5.786;2023-02-03T09:46:59;7.20;99.90
33803;DHT22;20110;53.120;5.786;2023-02-03T09:49:43;7.50;99.90
33803;DHT22;20110;53.120;5.786;2023-02-03T09:52:22;7.70;99.90
33803;DHT22;20110;53.120;5.786;2023-02-03T09:57:46;7.70;99.90
33803;DHT22;20110;53.120;5.786;2023-02-03T10:00:22;7.90;99.90
33803;DHT22;20110;53.120;5.786;2023-02-03T10:06:30;8.00;99.90
33803;DHT22;20110;53.120;5.786;2023-02-03T10:15:06;8.10;99.90
33803;DHT22;20110;53.120;5.786;2023-02-03T10:17:46;8.20;99.90
33803;DHT22;20110;53.120;5.786;2023-02-03T10:20:29;8.00;99.90
33803;DHT22;20110;53.120;5.786;2023-02-03T10:23:06;8.10;99.90
33803;DHT22;20110;53.120;5.786;2023-02-03T10:25:53;7.90;99.90
33803;DHT22;20110;53.120;5.786;2023-02-03T10:28:27;8.00;99.90
33803;DHT22;20110;53.120;5.786;2023-02-03T10:30:57;8.20;99.90
33803;DHT22;20110;53.120;5.786;2023-02-03T10:33:26;8.10;99.90
33803;DHT22;20110;53.120;5.786;2023-02-03T10:41:32;8.00;99.90
33803;DHT22;20110;53.120;5.786;2023-02-03T10:44:01;7.90;99.90
33803;DHT22;20110;53.120;5.786;2023-02-03T10:46:35;7.90;99.90
33803;DHT22;20110;53.120;5.786;2023-02-03T10:49:03;7.90;99.90
33803;DHT22;20110;53.120;5.786;2023-02-03T10:51:35;7.90;99.90
33803;DHT22;20110;53.120;5.786;2023-02-03T10:57:05;7.80;99.90
33803;DHT22;20110;53.120;5.786;2023-02-03T10:59:40;7.90;99.90
33803;DHT22;20110;53.120;5.786;2023-02-03T11:02:26;7.80;99.90
33803;DHT22;20110;53.120;5.786;2023-02-03T11:07:42;7.80;99.90
33803;DHT22;20110;53.120;5.786;2023-02-03T11:16:04;7.80;99.90
33803;DHT22;20110;53.120;5.786;2023-02-03T11:24:05;7.70;99.90
33803;DHT22;20110;53.120;5.786;2023-02-03T11:26:46;7.70;99.90
33803;DHT22;20110;53.120;5.786;2023-02-03T11:29:27;7.70;99.90
33803;DHT22;20110;53.120;5.786;2023-02-03T11:31:57;7.70;99.90
33803;DHT22;20110;53.120;5.786;2023-02-03T11:34:46;7.70;99.90
33803;DHT22;20110;53.120;5.786;2023-02-03T11:37:42;7.70;55.80
33803;DHT22;20110;53.120;5.786;2023-02-03T11:40:27;7.60;8.50
33803;DHT22;20110;53.120;5.786;2023-02-03T11:45:27;7.70;99.90
33803;DHT22;20110;53.120;5.786;2023-02-03T12:06:04;7.40;63.60
33803;DHT22;20110;53.120;5.786;2023-02-03T12:17:10;7.60;1.00
33803;DHT22;20110;53.120;5.786;2023-02-03T12:19:56;7.60;1.00
33803;DHT22;20110;53.120;5.786;2023-02-03T12:22:35;7.70;1.00
33803;DHT22;20110;53.120;5.786;2023-02-03T12:26:28;7.70;1.00
33803;DHT22;20110;53.120;5.786;2023-02-03T12:40:45;7.70;1.00
33803;DHT22;20110;53.120;5.786;2023-02-03T12:46:41;7.40;1.00
33803;DHT22;20110;53.120;5.786;2023-02-03T12:52:17;7.50;1.00
33803;DHT22;20110;53.120;5.786;2023-02-03T12:55:17;7.40;1.00
33803;DHT22;20110;53.120;5.786;2023-02-03T12:58:08;7.40;99.90
33803;DHT22;20110;53.120;5.786;2023-02-03T13:03:45;7.60;99.90
33803;DHT22;20110;53.120;5.786;2023-02-03T13:20:58;7.90;99.90
33803;DHT22;20110;53.120;5.786;2023-02-03T13:23:25;7.90;99.90
33803;DHT22;20110;53.120;5.786;2023-02-03T13:28:56;7.90;99.90
33803;DHT22;20110;53.120;5.786;2023-02-03T13:40:18;7.90;99.90
33803;DHT22;20110;53.120;5.786;2023-02-03T13:43:04;8.00;99.90
33803;DHT22;20110;53.120;5.786;2023-02-03T13:45:39;8.10;1.00
33803;DHT22;20110;53.120;5.786;2023-02-03T13:48:18;8.00;1.00
33803;DHT22;20110;53.120;5.786;2023-02-03T13:50:50;8.10;1.00
33803;DHT22;20110;53.120;5.786;2023-02-03T13:53:27;8.20;1.00
33803;DHT22;20110;53.120;5.786;2023-02-03T13:55:57;8.10;1.00
33803;DHT22;20110;53.120;5.786;2023-02-03T13:58:27;8.20;1.00
33803;DHT22;20110;53.120;5.786;2023-02-03T14:05:59;8.10;1.00
33803;DHT22;20110;53.120;5.786;2023-02-03T14:16:51;7.90;99.90
33803;DHT22;20110;53.120;5.786;2023-02-03T14:21:51;8.00;99.90
33803;DHT22;20110;53.120;5.786;2023-02-03T14:24:43;7.90;99.90
33803;DHT22;20110;53.120;5.786;2023-02-03T14:30:08;7.70;99.90
33803;DHT22;20110;53.120;5.786;2023-02-03T14:32:55;7.70;99.90
33803;DHT22;20110;53.120;5.786;2023-02-03T14:35:32;7.80;99.90
33803;DHT22;20110;53.120;5.786;2023-02-03T14:38:06;7.80;1.00
33803;DHT22;20110;53.120;5.786;2023-02-03T14:43:48;7.80;1.00
33803;DHT22;20110;53.120;5.786;2023-02-03T14:46:35;7.80;99.90
33803;DHT22;20110;53.120;5.786;2023-02-03T14:49:17;7.70;1.00
33803;DHT22;20110;53.120;5.786;2023-02-03T14:58:03;6.70;93.70
33803;DHT22;20110;53.120;5.786;2023-02-03T15:00:41;6.70;99.90
33803;DHT22;20110;53.120;5.786;2023-02-03T15:05:44;7.00;99.90
33803;DHT22;20110;53.120;5.786;2023-02-03T15:08:41;7.20;99.90
33803;DHT22;20110;53.120;5.786;2023-02-03T15:17:02;7.20;99.90
33803;DHT22;20110;53.120;5.786;2023-02-03T15:19:39;7.20;99.90
33803;DHT22;20110;53.120;5.786;2023-02-03T15:22:23;7.20;99.90
33803;DHT22;20110;53.120;5.786;2023-02-03T15:24:54;7.10;99.90
33803;DHT22;20110;53.120;5.786;2023-02-03T15:27:26;7.10;99.90
33803;DHT22;20110;53.120;5.786;2023-02-03T15:29:53;7.00;99.90
33803;DHT22;20110;53.120;5.786;2023-02-03T15:32:46;7.00;99.90
33803;DHT22;20110;53.120;5.786;2023-02-03T15:35:19;7.00;99.90
33803;DHT22;20110;53.120;5.786;2023-02-03T15:37:59;6.80;99.90
33803;DHT22;20110;53.120;5.786;2023-02-03T15:40:43;6.90;99.90
33803;DHT22;20110;53.120;5.786;2023-02-03T15:43:18;7.00;99.90
33803;DHT22;20110;53.120;5.786;2023-02-03T15:46:09;6.90;99.90
33803;DHT22;20110;53.120;5.786;2023-02-03T15:49:10;6.90;99.90
33803;DHT22;20110;53.120;5.786;2023-02-03T15:51:52;6.90;99.90
33803;DHT22;20110;53.120;5.786;2023-02-03T15:54:41;6.90;1.00
33803;DHT22;20110;53.120;5.786;2023-02-03T15:57:26;7.00;99.90
33803;DHT22;20110;53.120;5.786;2023-02-03T16:00:10;6.90;99.90
33803;DHT22;20110;53.120;5.786;2023-02-03T16:02:51;6.90;99.90
33803;DHT22;20110;53.120;5.786;2023-02-03T16:05:25;6.70;99.90
33803;DHT22;20110;53.120;5.786;2023-02-03T16:07:54;6.80;99.90
33803;DHT22;20110;53.120;5.786;2023-02-03T16:10:29;6.70;99.90
33803;DHT22;20110;53.120;5.786;2023-02-03T16:13:19;6.60;99.90
33803;DHT22;20110;53.120;5.786;2023-02-03T16:16:14;6.40;99.90
33803;DHT22;20110;53.120;5.786;2023-02-03T16:18:51;6.50;1.00
33803;DHT22;20110;53.120;5.786;2023-02-03T16:21:34;6.50;1.00
33803;DHT22;20110;53.120;5.786;2023-02-03T16:24:40;6.50;1.00
33803;DHT22;20110;53.120;5.786;2023-02-03T16:30:14;6.30;1.00
33803;DHT22;20110;53.120;5.786;2023-02-03T16:35:53;6.10;94.10
33803;DHT22;20110;53.120;5.786;2023-02-03T16:38:48;6.00;99.90
33803;DHT22;20110;53.120;5.786;2023-02-03T16:41:34;5.80;99.90
33803;DHT22;20110;53.120;5.786;2023-02-03T16:44:20;5.90;99.90
33803;DHT22;20110;53.120;5.786;2023-02-03T16:47:24;6.00;99.90
33803;DHT22;20110;53.120;5.786;2023-02-03T16:50:14;6.00;99.90
33803;DHT22;20110;53.120;5.786;2023-02-03T16:53:01;6.00;99.90
33803;DHT22;20110;53.120;5.786;2023-02-03T16:55:27;6.00;99.90
33803;DHT22;20110;53.120;5.786;2023-02-03T16:57:52;6.10;99.90
33803;DHT22;20110;53.120;5.786;2023-02-03T17:00:19;6.10;99.90
33803;DHT22;20110;53.120;5.786;2023-02-03T17:02:47;6.00;1.00
33803;DHT22;20110;53.120;5.786;2023-02-03T17:05:14;6.10;1.00
33803;DHT22;20110;53.120;5.786;2023-02-03T17:07:40;6.10;1.00
33803;DHT22;20110;53.120;5.786;2023-02-03T17:10:07;6.00;1.00
33803;DHT22;20110;53.120;5.786;2023-02-03T17:12:34;5.80;1.00
33803;DHT22;20110;53.120;5.786;2023-02-03T17:15:02;5.80;26.00
33803;DHT22;20110;53.120;5.786;2023-02-03T17:17:29;5.80;80.10
33803;DHT22;20110;53.120;5.786;2023-02-03T17:19:55;5.70;86.50
33803;DHT22;20110;53.120;5.786;2023-02-03T17:22:24;5.70;99.90
33803;DHT22;20110;53.120;5.786;2023-02-03T17:24:51;5.90;99.90
33803;DHT22;20110;53.120;5.786;2023-02-03T17:27:17;5.90;99.90
33803;DHT22;20110;53.120;5.786;2023-02-03T17:29:43;6.00;99.90
33803;DHT22;20110;53.120;5.786;2023-02-03T17:32:09;5.90;16.30
33803;DHT22;20110;53.120;5.786;2023-02-03T17:34:39;5.90;99.90
33803;DHT22;20110;53.120;5.786;2023-02-03T17:37:06;6.00;99.90
33803;DHT22;20110;53.120;5.786;2023-02-03T17:39:32;6.10;99.90
33803;DHT22;20110;53.120;5.786;2023-02-03T17:41:57;6.10;90.80
33803;DHT22;20110;53.120;5.786;2023-02-03T17:44:23;6.10;15.40
33803;DHT22;20110;53.120;5.786;2023-02-03T17:46:50;6.10;24.20
33803;DHT22;20110;53.120;5.786;2023-02-03T17:49:16;6.20;21.30
33803;DHT22;20110;53.120;5.786;2023-02-03T17:51:42;6.10;1.00
33803;DHT22;20110;53.120;5.786;2023-02-03T17:54:09;6.10;1.00
33803;DHT22;20110;53.120;5.786;2023-02-03T17:56:35;6.10;1.00
33803;DHT22;20110;53.120;5.786;2023-02-03T17:59:04;6.10;1.00
33803;DHT22;20110;53.120;5.786;2023-02-03T18:01:30;6.10;1.00
33803;DHT22;20110;53.120;5.786;2023-02-03T18:03:58;6.10;1.00
33803;DHT22;20110;53.120;5.786;2023-02-03T18:06:28;6.20;1.00
33803;DHT22;20110;53.120;5.786;2023-02-03T18:08:54;6.30;1.00
33803;DHT22;20110;53.120;5.786;2023-02-03T18:11:26;6.30;1.00
33803;DHT22;20110;53.120;5.786;2023-02-03T18:13:53;6.10;1.00
33803;DHT22;20110;53.120;5.786;2023-02-03T18:16:22;6.20;1.00
33803;DHT22;20110;53.120;5.786;2023-02-03T18:18:52;6.20;1.00
33803;DHT22;20110;53.120;5.786;2023-02-03T18:21:20;6.30;1.00
33803;DHT22;20110;53.120;5.786;2023-02-03T18:23:48;6.30;1.00
33803;DHT22;20110;53.120;5.786;2023-02-03T18:26:16;6.30;1.00
33803;DHT22;20110;53.120;5.786;2023-02-03T18:28:44;6.30;1.00
33803;DHT22;20110;53.120;5.786;2023-02-03T18:31:12;6.30;1.00
33803;DHT22;20110;53.120;5.786;2023-02-03T18:33:40;6.30;1.00
33803;DHT22;20110;53.120;5.786;2023-02-03T18:36:09;6.20;1.00
33803;DHT22;20110;53.120;5.786;2023-02-03T18:38:39;6.30;1.00
33803;DHT22;20110;53.120;5.786;2023-02-03T18:41:08;6.30;1.00
33803;DHT22;20110;53.120;5.786;2023-02-03T18:43:39;6.20;1.00
33803;DHT22;20110;53.120;5.786;2023-02-03T18:46:10;6.20;1.00
33803;DHT22;20110;53.120;5.786;2023-02-03T18:48:38;6.20;1.50
33803;DHT22;20110;53.120;5.786;2023-02-03T18:51:09;6.20;6.70
33803;DHT22;20110;53.120;5.786;2023-02-03T18:53:36;6.20;1.00
33803;DHT22;20110;53.120;5.786;2023-02-03T18:56:07;6.20;1.00
33803;DHT22;20110;53.120;5.786;2023-02-03T18:58:36;6.10;1.00
33803;DHT22;20110;53.120;5.786;2023-02-03T19:01:02;6.20;9.00
33803;DHT22;20110;53.120;5.786;2023-02-03T19:03:28;6.20;14.10
33803;DHT22;20110;53.120;5.786;2023-02-03T19:05:54;6.20;9.80
33803;DHT22;20110;53.120;5.786;2023-02-03T19:08:20;6.30;1.00
33803;DHT22;20110;53.120;5.786;2023-02-03T19:10:49;6.30;1.00
33803;DHT22;20110;53.120;5.786;2023-02-03T19:13:17;6.30;1.00
33803;DHT22;20110;53.120;5.786;2023-02-03T19:15:44;6.20;1.00
33803;DHT22;20110;53.120;5.786;2023-02-03T19:18:12;6.30;14.10
33803;DHT22;20110;53.120;5.786;2023-02-03T19:20:38;6.30;1.00
33803;DHT22;20110;53.120;5.786;2023-02-03T19:23:07;6.30;1.00
33803;DHT22;20110;53.120;5.786;2023-02-03T19:25:36;6.30;1.00
33803;DHT22;20110;53.120;5.786;2023-02-03T19:28:02;6.30;1.00
33803;DHT22;20110;53.120;5.786;2023-02-03T19:30:30;6.20;1.00
33803;DHT22;20110;53.120;5.786;2023-02-03T19:32:57;6.20;99.90